createdAt,value
2022-11-02T00:00:07.687Z,78.1
2022-11-02T00:01:08.300Z,77.3
2022-11-02T00:02:08.918Z,77.5
2022-11-02T00:03:09.733Z,77.6
2022-11-02T00:04:10.381Z,77.6
2022-11-02T00:05:10.975Z,77.6
2022-11-02T00:06:11.569Z,77.6
2022-11-02T00:07:12.162Z,77.6
2022-11-02T00:08:12.752Z,77.6
2022-11-02T00:09:13.349Z,78.0
2022-11-02T00:10:13.942Z,77.3
2022-11-02T00:11:14.537Z,77.4
2022-11-02T00:12:15.127Z,77.6
2022-11-02T00:13:15.723Z,77.5
2022-11-02T00:14:16.315Z,77.6
2022-11-02T00:15:16.909Z,77.6
2022-11-02T00:16:17.502Z,77.1
2022-11-02T00:17:18.097Z,77.3
2022-11-02T00:18:18.688Z,78.1
2022-11-02T00:19:19.285Z,78.1
2022-11-02T00:20:19.877Z,78.5
2022-11-02T00:21:20.472Z,78.5
2022-11-02T00:22:21.063Z,79.1
2022-11-02T00:23:21.658Z,78.4
2022-11-02T00:24:22.251Z,78.7
2022-11-02T00:25:24.558Z,78.4
2022-11-02T00:26:25.152Z,77.6
2022-11-02T00:27:25.747Z,77.6
2022-11-02T00:28:26.339Z,78.3
2022-11-02T00:29:28.858Z,78.2
2022-11-02T00:30:28.520Z,77.5
2022-11-02T00:31:29.114Z,77.8
2022-11-02T00:32:29.729Z,78.0
2022-11-02T00:33:30.323Z,78.3
2022-11-02T00:34:30.918Z,78.3
2022-11-02T00:35:31.512Z,78.0
2022-11-02T00:36:32.105Z,77.5
2022-11-02T00:38:34.169Z,77.6
2022-11-02T00:39:34.758Z,77.7
2022-11-02T00:40:35.351Z,77.1
2022-11-02T00:41:35.945Z,78.0
2022-11-02T00:42:36.540Z,78.0
2022-11-02T00:43:37.136Z,77.9
2022-11-02T00:44:37.750Z,78.3
2022-11-02T00:45:38.345Z,78.2
2022-11-02T00:46:38.938Z,77.5
2022-11-02T00:47:39.534Z,77.6
2022-11-02T00:48:40.128Z,77.8
2022-11-02T00:49:40.728Z,77.9
2022-11-02T00:50:41.317Z,78.1
2022-11-02T00:51:41.914Z,77.8
2022-11-02T00:52:42.505Z,77.4
2022-11-02T00:53:43.102Z,77.8
2022-11-02T00:54:43.729Z,78.2
2022-11-02T00:55:44.329Z,78.2
2022-11-02T00:56:44.921Z,78.0
2022-11-02T00:57:45.516Z,78.1
2022-11-02T00:58:46.109Z,78.2
2022-11-02T00:59:46.706Z,77.9
2022-11-02T01:00:47.301Z,78.5
2022-11-02T01:01:48.033Z,78.9
2022-11-02T01:02:48.696Z,78.4
2022-11-02T01:03:49.338Z,78.9
2022-11-02T01:04:49.934Z,77.9
2022-11-02T01:05:50.528Z,77.9
2022-11-02T01:06:51.122Z,77.6
2022-11-02T01:07:51.716Z,77.6
2022-11-02T01:08:52.311Z,78.0
2022-11-02T01:09:52.911Z,77.9
2022-11-02T01:10:53.498Z,78.0
2022-11-02T01:11:54.093Z,78.1
2022-11-02T01:12:54.688Z,78.0
2022-11-02T01:13:55.282Z,78.3
2022-11-02T01:14:55.876Z,78.1
2022-11-02T01:15:56.468Z,78.2
2022-11-02T01:16:57.079Z,77.2
2022-11-02T01:17:57.657Z,77.3
2022-11-02T01:18:58.251Z,77.4
2022-11-02T01:19:58.844Z,76.8
2022-11-02T01:20:59.444Z,77.0
2022-11-02T01:22:00.059Z,77.1
2022-11-02T01:23:00.653Z,77.2
2022-11-02T01:24:01.246Z,77.4
2022-11-02T01:25:01.845Z,76.8
2022-11-02T01:26:02.435Z,76.8
2022-11-02T01:27:03.055Z,76.5
2022-11-02T01:28:03.879Z,77.0
2022-11-02T01:29:04.549Z,77.1
2022-11-02T01:30:05.147Z,77.3
2022-11-02T01:31:05.736Z,77.6
2022-11-02T01:32:06.330Z,77.4
2022-11-02T01:33:06.921Z,77.3
2022-11-02T01:34:07.513Z,77.3
2022-11-02T01:35:08.108Z,77.5
2022-11-02T01:36:08.724Z,77.5
2022-11-02T01:37:09.300Z,77.6
2022-11-02T01:38:09.886Z,78.0
2022-11-02T01:39:10.483Z,78.0
2022-11-02T01:40:11.100Z,77.6
2022-11-02T01:41:11.690Z,78.1
2022-11-02T01:42:12.282Z,78.0
2022-11-02T01:43:12.876Z,78.1
2022-11-02T01:44:13.470Z,78.3
2022-11-02T01:45:14.065Z,78.1
2022-11-02T01:46:14.659Z,78.3
2022-11-02T01:47:15.255Z,79.1
2022-11-02T01:48:15.846Z,79.6
2022-11-02T01:49:16.440Z,80.4
2022-11-02T01:50:17.035Z,80.3
2022-11-02T01:51:17.629Z,80.2
2022-11-02T01:52:18.224Z,80.8
2022-11-02T01:53:18.814Z,80.8
2022-11-02T01:54:19.407Z,81.3
2022-11-02T01:55:20.001Z,80.5
2022-11-02T01:56:20.625Z,81.0
2022-11-02T01:57:21.197Z,80.5
2022-11-02T01:58:21.789Z,81.1
2022-11-02T01:59:22.383Z,80.3
2022-11-02T02:00:22.977Z,80.5
2022-11-02T02:01:23.722Z,80.7
2022-11-02T02:02:24.373Z,81.2
2022-11-02T02:03:24.964Z,80.9
2022-11-02T02:04:25.557Z,80.7
2022-11-02T02:05:26.167Z,80.9
2022-11-02T02:06:26.761Z,81.5
2022-11-02T02:07:27.356Z,82.6
2022-11-02T02:08:27.949Z,83.4
2022-11-02T02:09:28.545Z,84.4
2022-11-02T02:10:29.138Z,85.9
2022-11-02T02:11:29.736Z,85.8
2022-11-02T02:12:30.333Z,86.8
2022-11-02T02:13:30.922Z,86.5
2022-11-02T02:14:31.534Z,87.4
2022-11-02T02:15:32.133Z,88.2
2022-11-02T02:16:33.761Z,87.5
2022-11-02T02:17:34.311Z,87.5
2022-11-02T02:18:34.918Z,87.7
2022-11-02T02:19:35.503Z,87.8
2022-11-02T02:20:36.095Z,88.4
2022-11-02T02:21:36.714Z,88.5
2022-11-02T02:22:37.285Z,88.5
2022-11-02T02:23:37.879Z,88.6
2022-11-02T02:24:38.492Z,88.4
2022-11-02T02:25:39.087Z,88.5
2022-11-02T02:26:39.681Z,87.9
2022-11-02T02:27:40.274Z,87.6
2022-11-02T02:28:40.870Z,87.9
2022-11-02T02:29:41.465Z,87.2
2022-11-02T02:30:42.058Z,87.2
2022-11-02T02:31:42.652Z,86.5
2022-11-02T02:32:43.245Z,86.7
2022-11-02T02:33:43.865Z,86.6
2022-11-02T02:34:44.456Z,87.1
2022-11-02T02:35:45.049Z,86.4
2022-11-02T02:37:47.155Z,86.3
2022-11-02T02:38:47.747Z,87.1
2022-11-02T02:39:48.342Z,86.6
2022-11-02T02:40:48.937Z,86.8
2022-11-02T02:41:49.531Z,86.7
2022-11-02T02:42:50.124Z,87.0
2022-11-02T02:43:50.720Z,87.6
2022-11-02T02:44:51.312Z,86.7
2022-11-02T02:45:51.924Z,86.8
2022-11-02T02:46:56.074Z,87.0
2022-11-02T02:47:54.104Z,87.3
2022-11-02T02:48:54.696Z,87.1
2022-11-02T02:49:55.290Z,86.6
2022-11-02T02:50:55.891Z,86.7
2022-11-02T02:51:56.477Z,86.7
2022-11-02T02:52:57.071Z,87.0
2022-11-02T02:53:57.683Z,87.3
2022-11-02T02:54:58.275Z,87.8
2022-11-02T02:55:58.873Z,87.9
2022-11-02T02:56:59.465Z,88.0
2022-11-02T02:58:00.063Z,88.0
2022-11-02T02:59:00.649Z,87.8
2022-11-02T03:00:01.245Z,88.0
2022-11-02T03:01:01.837Z,88.0
2022-11-02T03:02:02.490Z,87.6
2022-11-02T03:03:03.126Z,87.7
2022-11-02T03:04:03.721Z,87.8
2022-11-02T03:05:04.317Z,87.7
2022-11-02T03:06:04.912Z,87.7
2022-11-02T03:07:05.503Z,87.9
2022-11-02T03:08:06.436Z,88.0
2022-11-02T03:09:07.160Z,88.0
2022-11-02T03:10:07.758Z,87.9
2022-11-02T03:11:08.350Z,87.9
2022-11-02T03:12:08.943Z,88.0
2022-11-02T03:13:09.536Z,87.9
2022-11-02T03:14:10.134Z,87.4
2022-11-02T03:15:10.722Z,87.4
2022-11-02T03:16:11.317Z,87.8
2022-11-02T03:17:11.910Z,88.1
2022-11-02T03:18:12.503Z,88.2
2022-11-02T03:19:13.098Z,87.8
2022-11-02T03:20:13.693Z,88.1
2022-11-02T03:21:14.285Z,87.2
2022-11-02T03:22:14.879Z,87.5
2022-11-02T03:23:15.492Z,86.6
2022-11-02T03:24:16.087Z,86.5
2022-11-02T03:25:16.681Z,85.8
2022-11-02T03:26:17.275Z,85.9
2022-11-02T03:27:17.866Z,85.8
2022-11-02T03:28:18.459Z,86.1
2022-11-02T03:29:19.054Z,86.1
2022-11-02T03:30:19.648Z,86.2
2022-11-02T03:31:20.246Z,86.1
2022-11-02T03:32:20.852Z,85.4
2022-11-02T03:33:21.452Z,85.2
2022-11-02T03:34:22.088Z,85.9
2022-11-02T03:35:22.654Z,85.2
2022-11-02T03:36:23.249Z,84.8
2022-11-02T03:37:23.845Z,85.2
2022-11-02T03:38:24.441Z,85.8
2022-11-02T03:39:25.032Z,85.6
2022-11-02T03:40:25.625Z,86.1
2022-11-02T03:41:26.220Z,85.5
2022-11-02T03:42:26.815Z,85.0
2022-11-02T03:43:27.411Z,85.4
2022-11-02T03:44:28.006Z,84.5
2022-11-02T03:45:28.620Z,84.5
2022-11-02T03:46:29.234Z,84.5
2022-11-02T03:47:29.837Z,84.2
2022-11-02T03:48:30.420Z,84.0
2022-11-02T03:49:31.013Z,83.4
2022-11-02T03:50:31.607Z,83.8
2022-11-02T03:51:32.200Z,83.2
2022-11-02T03:52:32.796Z,83.1
2022-11-02T03:53:33.391Z,83.6
2022-11-02T03:54:33.987Z,83.3
2022-11-02T03:55:34.581Z,83.9
2022-11-02T03:56:35.302Z,83.4
2022-11-02T03:57:35.845Z,83.3
2022-11-02T03:58:36.437Z,83.0
2022-11-02T03:59:37.029Z,83.3
2022-11-02T04:00:37.642Z,83.9
2022-11-02T04:01:38.350Z,83.2
2022-11-02T04:02:39.039Z,83.4
2022-11-02T04:03:39.608Z,83.1
2022-11-02T04:04:40.203Z,83.4
2022-11-02T04:05:40.814Z,83.4
2022-11-02T04:06:41.409Z,83.6
2022-11-02T04:07:42.001Z,83.7
2022-11-02T04:08:42.593Z,83.6
2022-11-02T04:09:43.196Z,83.3
2022-11-02T04:10:43.782Z,82.8
2022-11-02T04:11:44.372Z,82.6
2022-11-02T04:12:44.969Z,82.8
2022-11-02T04:13:45.559Z,82.8
2022-11-02T04:14:46.156Z,82.8
2022-11-02T04:15:46.748Z,82.6
2022-11-02T04:16:47.340Z,82.7
2022-11-02T04:17:47.934Z,82.4
2022-11-02T04:18:48.528Z,82.0
2022-11-02T04:19:50.107Z,82.1
2022-11-02T04:20:49.730Z,82.0
2022-11-02T04:21:50.321Z,82.1
2022-11-02T04:22:50.918Z,82.5
2022-11-02T04:23:51.508Z,81.9
2022-11-02T04:24:52.102Z,81.8
2022-11-02T04:25:52.694Z,81.9
2022-11-02T04:26:53.288Z,81.7
2022-11-02T04:27:53.879Z,82.3
2022-11-02T04:28:54.476Z,82.1
2022-11-02T04:29:55.067Z,82.0
2022-11-02T04:30:55.662Z,82.0
2022-11-02T04:31:56.270Z,82.1
2022-11-02T04:32:56.846Z,82.1
2022-11-02T04:33:57.437Z,82.4
2022-11-02T04:34:58.033Z,82.5
2022-11-02T04:35:58.627Z,83.6
2022-11-02T04:36:59.220Z,83.7
2022-11-02T04:37:59.817Z,82.9
2022-11-02T04:39:00.407Z,83.3
2022-11-02T04:40:01.003Z,83.3
2022-11-02T04:41:01.596Z,83.5
2022-11-02T04:42:02.190Z,83.7
2022-11-02T04:43:02.786Z,83.3
2022-11-02T04:44:03.379Z,82.7
2022-11-02T04:45:03.973Z,83.7
2022-11-02T04:46:04.566Z,83.0
2022-11-02T04:47:05.160Z,82.8
2022-11-02T04:48:06.018Z,82.4
2022-11-02T04:49:06.800Z,82.0
2022-11-02T04:50:07.394Z,81.9
2022-11-02T04:51:07.993Z,82.1
2022-11-02T04:52:08.584Z,81.9
2022-11-02T04:53:09.185Z,82.5
2022-11-02T04:54:09.793Z,82.8
2022-11-02T04:55:10.394Z,82.7
2022-11-02T04:56:10.980Z,82.9
2022-11-02T04:57:11.574Z,83.7
2022-11-02T04:58:12.167Z,82.8
2022-11-02T04:59:12.762Z,83.0
2022-11-02T05:00:13.354Z,83.0
2022-11-02T05:01:14.023Z,83.0
2022-11-02T05:02:14.682Z,82.9
2022-11-02T05:03:15.259Z,83.7
2022-11-02T05:04:15.855Z,82.9
2022-11-02T05:05:16.448Z,83.0
2022-11-02T05:06:17.042Z,83.3
2022-11-02T05:07:17.654Z,83.1
2022-11-02T05:08:18.267Z,82.8
2022-11-02T05:09:18.861Z,83.7
2022-11-02T05:10:19.458Z,83.4
2022-11-02T05:11:20.071Z,83.5
2022-11-02T05:12:22.375Z,83.4
2022-11-02T05:13:22.251Z,83.6
2022-11-02T05:14:22.846Z,83.7
2022-11-02T05:15:23.439Z,83.3
2022-11-02T05:16:24.033Z,84.0
2022-11-02T05:17:24.628Z,84.0
2022-11-02T05:18:25.230Z,84.1
2022-11-02T05:19:25.819Z,83.7
2022-11-02T05:20:26.414Z,84.6
2022-11-02T05:21:27.005Z,84.1
2022-11-02T05:22:27.597Z,84.6
2022-11-02T05:23:28.190Z,84.6
2022-11-02T05:24:28.785Z,84.5
2022-11-02T05:25:29.378Z,84.5
2022-11-02T05:26:29.973Z,84.8
2022-11-02T05:27:30.566Z,84.1
2022-11-02T05:28:31.171Z,83.5
2022-11-02T05:29:31.754Z,83.5
2022-11-02T05:30:32.348Z,83.6
2022-11-02T05:31:32.940Z,84.2
2022-11-02T05:32:33.535Z,83.8
2022-11-02T05:33:34.128Z,83.5
2022-11-02T05:34:34.722Z,83.5
2022-11-02T05:35:35.317Z,83.7
2022-11-02T05:36:35.910Z,83.7
2022-11-02T05:37:36.523Z,83.5
2022-11-02T05:38:37.116Z,83.5
2022-11-02T05:39:37.708Z,83.5
2022-11-02T05:40:38.321Z,83.1
2022-11-02T05:41:38.916Z,83.6
2022-11-02T05:42:39.510Z,83.9
2022-11-02T05:43:40.105Z,83.6
2022-11-02T05:44:40.697Z,83.6
2022-11-02T05:45:41.289Z,83.7
2022-11-02T05:46:41.885Z,83.6
2022-11-02T05:47:42.477Z,83.9
2022-11-02T05:48:43.071Z,82.5
2022-11-02T05:49:43.671Z,82.6
2022-11-02T05:50:44.257Z,83.0
2022-11-02T05:51:44.850Z,83.3
2022-11-02T05:52:45.447Z,84.0
2022-11-02T05:53:46.039Z,83.4
2022-11-02T05:54:46.635Z,83.4
2022-11-02T05:55:47.226Z,82.4
2022-11-02T05:56:47.822Z,82.9
2022-11-02T05:57:48.416Z,82.7
2022-11-02T05:58:49.053Z,82.7
2022-11-02T05:59:49.698Z,83.6
2022-11-02T06:00:50.267Z,83.5
2022-11-02T06:01:50.893Z,83.7
2022-11-02T06:02:51.453Z,83.8
2022-11-02T06:03:53.714Z,83.8
2022-11-02T06:04:53.724Z,82.8
2022-11-02T06:05:54.299Z,82.8
2022-11-02T06:06:54.902Z,82.8
2022-11-02T06:07:55.489Z,83.5
2022-11-02T06:08:56.085Z,83.5
2022-11-02T06:09:56.681Z,83.4
2022-11-02T06:10:57.277Z,83.3
2022-11-02T06:11:57.872Z,83.7
2022-11-02T06:12:58.488Z,82.9
2022-11-02T06:13:59.083Z,83.5
2022-11-02T06:14:59.678Z,83.7
2022-11-02T06:16:00.278Z,83.4
2022-11-02T06:17:00.875Z,83.3
2022-11-02T06:18:01.471Z,83.6
2022-11-02T06:19:02.131Z,83.1
2022-11-02T06:20:02.685Z,82.5
2022-11-02T06:21:03.281Z,82.2
2022-11-02T06:22:03.879Z,82.1
2022-11-02T06:23:04.785Z,82.2
2022-11-02T06:24:05.528Z,82.3
2022-11-02T06:25:06.124Z,82.4
2022-11-02T06:26:06.721Z,82.1
2022-11-02T06:27:07.318Z,82.0
2022-11-02T06:28:07.917Z,81.9
2022-11-02T06:29:08.563Z,82.1
2022-11-02T06:30:09.124Z,82.0
2022-11-02T06:31:09.720Z,82.2
2022-11-02T06:32:10.317Z,82.1
2022-11-02T06:33:11.031Z,82.4
2022-11-02T06:34:11.667Z,82.3
2022-11-02T06:35:12.265Z,82.3
2022-11-02T06:36:12.861Z,81.6
2022-11-02T06:37:13.457Z,82.4
2022-11-02T06:38:14.056Z,82.2
2022-11-02T06:39:14.653Z,81.9
2022-11-02T06:40:15.267Z,82.2
2022-11-02T06:41:15.849Z,81.9
2022-11-02T06:42:16.445Z,82.2
2022-11-02T06:43:17.810Z,81.7
2022-11-02T06:44:18.586Z,81.7
2022-11-02T06:45:19.185Z,82.3
2022-11-02T06:46:19.783Z,82.4
2022-11-02T06:47:20.390Z,82.2
2022-11-02T06:48:20.981Z,82.0
2022-11-02T06:49:21.579Z,81.2
2022-11-02T06:50:22.179Z,81.1
2022-11-02T06:51:22.778Z,80.9
2022-11-02T06:52:23.377Z,80.9
2022-11-02T06:53:23.975Z,81.8
2022-11-02T06:54:24.581Z,81.9
2022-11-02T06:55:25.175Z,82.5
2022-11-02T06:56:25.773Z,82.5
2022-11-02T06:57:26.374Z,82.1
2022-11-02T06:58:26.976Z,81.9
2022-11-02T06:59:27.577Z,82.1
2022-11-02T07:00:28.408Z,82.2
2022-11-02T07:01:29.235Z,82.1
2022-11-02T07:02:29.914Z,82.1
2022-11-02T07:03:30.477Z,82.1
2022-11-02T07:04:31.074Z,82.2
2022-11-02T07:05:31.673Z,81.8
2022-11-02T07:06:32.274Z,81.5
2022-11-02T07:07:32.893Z,81.3
2022-11-02T07:08:33.507Z,81.7
2022-11-02T07:09:34.109Z,81.5
2022-11-02T07:10:34.709Z,80.8
2022-11-02T07:11:35.306Z,80.8
2022-11-02T07:12:35.904Z,80.8
2022-11-02T07:13:36.529Z,80.8
2022-11-02T07:14:37.139Z,81.4
2022-11-02T07:15:37.740Z,80.9
2022-11-02T07:16:38.337Z,81.1
2022-11-02T07:17:38.936Z,80.9
2022-11-02T07:18:39.535Z,81.3
2022-11-02T07:19:40.136Z,81.6
2022-11-02T07:20:40.735Z,81.3
2022-11-02T07:21:43.673Z,80.9
2022-11-02T07:22:42.923Z,81.6
2022-11-02T07:23:43.523Z,81.3
2022-11-02T07:24:44.121Z,81.0
2022-11-02T07:25:44.729Z,81.1
2022-11-02T07:26:45.318Z,80.6
2022-11-02T07:27:45.917Z,80.2
2022-11-02T07:28:46.514Z,80.3
2022-11-02T07:29:47.115Z,80.7
2022-11-02T07:30:47.732Z,80.1
2022-11-02T07:31:48.329Z,80.1
2022-11-02T07:32:48.925Z,80.1
2022-11-02T07:33:49.527Z,80.2
2022-11-02T07:34:50.122Z,80.5
2022-11-02T07:35:50.724Z,80.1
2022-11-02T07:36:51.341Z,80.1
2022-11-02T07:37:51.940Z,80.2
2022-11-02T07:38:52.537Z,79.6
2022-11-02T07:39:53.136Z,79.5
2022-11-02T07:40:53.732Z,80.0
2022-11-02T07:41:54.345Z,79.7
2022-11-02T07:42:54.959Z,79.8
2022-11-02T07:43:55.560Z,80.0
2022-11-02T07:44:56.157Z,79.6
2022-11-02T07:45:56.758Z,79.7
2022-11-02T07:46:57.354Z,79.7
2022-11-02T07:47:57.958Z,79.8
2022-11-02T07:48:58.553Z,79.8
2022-11-02T07:49:59.155Z,79.7
2022-11-02T07:50:59.752Z,79.6
2022-11-02T07:52:00.371Z,80.0
2022-11-02T07:53:00.991Z,79.6
2022-11-02T07:54:01.609Z,79.6
2022-11-02T07:55:02.210Z,79.5
2022-11-02T07:56:02.832Z,79.4
2022-11-02T07:57:03.426Z,78.5
2022-11-02T07:58:04.031Z,78.5
2022-11-02T07:59:04.623Z,78.0
2022-11-02T08:00:05.226Z,78.2
2022-11-02T08:01:05.823Z,77.9
2022-11-02T08:02:06.424Z,78.2
2022-11-02T08:03:07.437Z,78.0
2022-11-02T08:04:08.270Z,78.1
2022-11-02T08:05:08.849Z,77.9
2022-11-02T08:06:09.454Z,78.0
2022-11-02T08:07:10.052Z,78.0
2022-11-02T08:08:10.652Z,77.9
2022-11-02T08:09:11.250Z,78.2
2022-11-02T08:10:11.850Z,78.1
2022-11-02T08:11:12.470Z,77.8
2022-11-02T08:12:13.068Z,78.4
2022-11-02T08:13:13.664Z,77.4
2022-11-02T08:14:14.262Z,77.5
2022-11-02T08:15:14.862Z,78.0
2022-11-02T08:16:15.463Z,77.7
2022-11-02T08:17:16.061Z,77.2
2022-11-02T08:18:16.663Z,77.0
2022-11-02T08:19:17.262Z,77.4
2022-11-02T08:20:17.890Z,77.5
2022-11-02T08:21:18.489Z,77.4
2022-11-02T08:22:19.084Z,77.0
2022-11-02T08:23:19.681Z,76.7
2022-11-02T08:24:20.281Z,76.6
2022-11-02T08:25:20.896Z,76.9
2022-11-02T08:26:21.480Z,77.7
2022-11-02T08:27:22.083Z,77.7
2022-11-02T08:28:22.698Z,75.8
2022-11-02T08:29:23.296Z,75.7
2022-11-02T08:30:23.932Z,75.7
2022-11-02T08:31:24.507Z,75.8
2022-11-02T08:32:25.108Z,75.5
2022-11-02T08:33:25.706Z,75.3
2022-11-02T08:34:26.326Z,75.6
2022-11-02T08:35:26.923Z,75.7
2022-11-02T08:36:27.526Z,75.8
2022-11-02T08:37:28.123Z,75.6
2022-11-02T08:38:28.730Z,75.7
2022-11-02T08:39:29.319Z,75.6
2022-11-02T08:40:29.920Z,75.8
2022-11-02T08:41:30.659Z,75.4
2022-11-02T08:42:31.261Z,75.4
2022-11-02T08:43:31.858Z,75.4
2022-11-02T08:44:32.459Z,75.3
2022-11-02T08:46:00.533Z,74.4
2022-11-02T08:46:34.679Z,74.3
2022-11-02T08:47:35.293Z,74.6
2022-11-02T08:48:35.894Z,74.8
2022-11-02T08:49:36.494Z,74.5
2022-11-02T08:50:37.093Z,74.1
2022-11-02T08:51:37.694Z,74.3
2022-11-02T08:52:40.663Z,74.4
2022-11-02T08:53:39.886Z,74.4
2022-11-02T08:54:40.487Z,73.4
2022-11-02T08:55:41.084Z,73.2
2022-11-02T08:56:41.689Z,73.5
2022-11-02T08:57:42.285Z,73.5
2022-11-02T08:58:42.884Z,74.2
2022-11-02T08:59:43.487Z,73.6
2022-11-02T09:00:44.087Z,73.5
2022-11-02T09:01:44.887Z,73.3
2022-11-02T09:02:45.561Z,73.6
2022-11-02T09:03:46.139Z,73.4
2022-11-02T09:04:46.742Z,72.7
2022-11-02T09:05:47.344Z,72.6
2022-11-02T09:06:47.941Z,72.4
2022-11-02T09:07:48.539Z,72.3
2022-11-02T09:08:49.141Z,72.7
2022-11-02T09:09:49.736Z,71.7
2022-11-02T09:10:50.344Z,71.3
2022-11-02T09:11:50.957Z,71.5
2022-11-02T09:12:51.574Z,72.2
2022-11-02T09:13:56.628Z,72.1
2022-11-02T09:14:53.766Z,71.6
2022-11-02T09:15:54.363Z,71.6
2022-11-02T09:16:54.965Z,71.6
2022-11-02T09:17:55.562Z,71.4
2022-11-02T09:18:56.161Z,71.5
2022-11-02T09:19:56.762Z,71.4
2022-11-02T09:20:57.382Z,71.3
2022-11-02T09:21:57.991Z,71.6
2022-11-02T09:22:58.614Z,71.7
2022-11-02T09:23:59.211Z,71.7
2022-11-02T09:24:59.831Z,71.4
2022-11-02T09:26:00.452Z,71.2
2022-11-02T09:27:01.052Z,71.6
2022-11-02T09:28:01.651Z,71.5
2022-11-02T09:29:02.252Z,71.9
2022-11-02T09:30:02.851Z,72.0
2022-11-02T09:31:06.016Z,71.5
2022-11-02T09:32:05.045Z,71.5
2022-11-02T09:33:06.126Z,71.3
2022-11-02T09:34:06.869Z,71.5
2022-11-02T09:35:07.471Z,71.4
2022-11-02T09:36:08.071Z,71.4
2022-11-02T09:37:08.671Z,71.5
2022-11-02T09:38:09.271Z,71.0
2022-11-02T09:39:09.873Z,70.7
2022-11-02T09:40:10.472Z,71.0
2022-11-02T09:41:11.073Z,70.1
2022-11-02T09:42:11.673Z,70.0
2022-11-02T09:43:12.275Z,70.5
2022-11-02T09:44:12.875Z,70.1
2022-11-02T09:45:13.478Z,69.7
2022-11-02T09:46:14.078Z,70.0
2022-11-02T09:48:24.948Z,70.3
2022-11-02T09:49:17.862Z,70.2
2022-11-02T09:50:18.500Z,70.2
2022-11-02T09:51:19.064Z,70.2
2022-11-02T09:52:19.666Z,70.0
2022-11-02T09:53:20.267Z,70.2
2022-11-02T09:54:20.867Z,69.9
2022-11-02T09:55:21.467Z,70.0
2022-11-02T09:56:22.628Z,70.2
2022-11-02T09:57:23.037Z,69.9
2022-11-02T09:58:23.639Z,68.9
2022-11-02T09:59:24.240Z,69.2
2022-11-02T10:00:24.876Z,69.5
2022-11-02T10:01:25.506Z,69.5
2022-11-02T10:02:26.141Z,69.4
2022-11-02T10:03:26.710Z,69.4
2022-11-02T10:04:27.313Z,68.9
2022-11-02T10:05:27.912Z,69.4
2022-11-02T10:06:28.512Z,69.0
2022-11-02T10:07:29.114Z,69.5
2022-11-02T10:08:29.731Z,69.5
2022-11-02T10:09:30.331Z,69.0
2022-11-02T10:10:30.933Z,69.6
2022-11-02T10:11:31.572Z,69.9
2022-11-02T10:12:32.133Z,69.5
2022-11-02T10:13:32.735Z,69.8
2022-11-02T10:14:33.335Z,69.8
2022-11-02T10:15:33.936Z,68.9
2022-11-02T10:16:34.533Z,67.8
2022-11-02T10:17:35.136Z,68.0
2022-11-02T10:18:35.754Z,67.4
2022-11-02T10:19:36.356Z,67.4
2022-11-02T10:20:36.974Z,68.0
2022-11-02T10:21:37.574Z,67.9
2022-11-02T10:22:38.175Z,67.3
2022-11-02T10:23:38.773Z,68.3
2022-11-02T10:24:39.372Z,68.4
2022-11-02T10:25:39.976Z,67.6
2022-11-02T10:26:40.576Z,67.2
2022-11-02T10:27:41.278Z,67.6
2022-11-02T10:28:41.852Z,68.0
2022-11-02T10:29:42.455Z,67.4
2022-11-02T10:30:43.060Z,67.4
2022-11-02T10:31:43.684Z,67.2
2022-11-02T10:32:44.286Z,67.1
2022-11-02T10:33:44.877Z,68.1
2022-11-02T10:34:54.057Z,67.7
2022-11-02T10:36:04.877Z,67.4
2022-11-02T10:36:47.685Z,67.2
2022-11-02T10:37:48.286Z,67.2
2022-11-02T10:38:48.888Z,66.4
2022-11-02T10:39:49.488Z,66.8
2022-11-02T10:40:50.109Z,67.0
2022-11-02T10:41:50.710Z,66.6
2022-11-02T10:42:51.308Z,66.6
2022-11-02T10:43:52.336Z,67.3
2022-11-02T10:44:52.908Z,67.1
2022-11-02T10:45:53.507Z,67.6
2022-11-02T10:46:54.105Z,66.8
2022-11-02T10:47:54.705Z,67.6
2022-11-02T10:48:55.306Z,67.9
2022-11-02T10:49:55.907Z,67.5
2022-11-02T10:50:56.510Z,67.3
2022-11-02T10:51:57.110Z,67.7
2022-11-02T10:53:08.974Z,67.5
2022-11-02T10:53:59.318Z,67.2
2022-11-02T10:54:59.904Z,67.4
2022-11-02T10:56:00.507Z,67.1
2022-11-02T10:57:01.107Z,68.0
2022-11-02T10:58:01.723Z,68.1
2022-11-02T10:59:02.322Z,67.5
2022-11-02T11:00:02.920Z,67.6
2022-11-02T11:01:03.582Z,67.4
2022-11-02T11:02:04.222Z,67.8
2022-11-02T11:03:04.771Z,67.2
2022-11-02T11:04:05.375Z,67.8
2022-11-02T11:05:05.996Z,67.5
2022-11-02T11:06:06.592Z,67.3
2022-11-02T11:07:07.211Z,66.8
2022-11-02T11:08:08.101Z,67.0
2022-11-02T11:09:08.695Z,66.8
2022-11-02T11:10:09.311Z,67.0
2022-11-02T11:11:09.911Z,65.2
2022-11-02T11:12:10.512Z,65.7
2022-11-02T11:16:18.464Z,64.9
2022-11-02T11:20:22.286Z,65.0
2022-11-02T11:21:22.902Z,65.0
2022-11-02T11:22:23.502Z,65.9
2022-11-02T11:23:24.103Z,65.4
2022-11-02T11:24:24.768Z,65.5
2022-11-02T11:25:27.929Z,65.9
2022-11-02T11:26:26.932Z,65.5
2022-11-02T11:27:27.533Z,66.4
2022-11-02T11:28:28.135Z,66.6
2022-11-02T11:29:28.753Z,66.2
2022-11-02T11:31:30.994Z,67.6
2022-11-02T11:32:31.563Z,67.3
2022-11-02T11:33:32.165Z,66.8
2022-11-02T11:34:32.785Z,67.0
2022-11-02T11:35:33.422Z,66.8
2022-11-02T11:36:34.005Z,67.1
2022-11-02T11:37:34.600Z,67.0
2022-11-02T11:38:35.199Z,66.4
2022-11-02T11:39:35.821Z,66.2
2022-11-02T11:40:36.426Z,67.2
2022-11-02T11:41:37.022Z,66.6
2022-11-02T11:42:37.622Z,66.5
2022-11-02T11:43:38.242Z,66.5
2022-11-02T11:44:38.846Z,67.2
2022-11-02T11:45:39.476Z,67.1
2022-11-02T11:46:40.073Z,67.7
2022-11-02T11:47:40.677Z,67.8
2022-11-02T11:48:41.274Z,67.0
2022-11-02T11:50:07.347Z,65.9
2022-11-02T11:50:43.483Z,67.0
2022-11-02T11:51:44.103Z,67.0
2022-11-02T11:52:44.703Z,66.4
2022-11-02T11:53:45.324Z,67.8
2022-11-02T11:54:45.923Z,66.1
2022-11-02T11:55:46.526Z,66.8
2022-11-02T11:56:47.152Z,66.4
2022-11-02T11:57:47.754Z,65.6
2022-11-02T11:58:50.465Z,65.5
2022-11-02T11:59:49.949Z,64.7
2022-11-02T12:00:50.569Z,64.2
2022-11-02T12:01:51.300Z,64.7
2022-11-02T12:02:51.970Z,63.8
2022-11-02T12:03:52.531Z,63.8
2022-11-02T12:04:53.130Z,64.1
2022-11-02T12:05:53.753Z,62.6
2022-11-02T12:06:54.356Z,62.6
2022-11-02T12:07:56.121Z,61.9
2022-11-02T12:09:00.224Z,62.1
2022-11-02T12:09:57.164Z,61.0
2022-11-02T12:10:57.766Z,61.2
2022-11-02T12:11:58.368Z,60.9
2022-11-02T12:12:58.974Z,61.3
2022-11-02T12:13:59.571Z,61.8
2022-11-02T12:15:05.478Z,61.4
2022-11-02T12:16:01.769Z,61.2
2022-11-02T12:17:02.386Z,61.2
2022-11-02T12:18:03.392Z,60.4
2022-11-02T12:19:04.171Z,60.1
2022-11-02T12:20:04.789Z,61.1
2022-11-02T12:21:05.374Z,61.8
2022-11-02T12:22:05.994Z,61.5
2022-11-02T12:23:06.883Z,61.4
2022-11-02T12:24:07.659Z,61.1
2022-11-02T12:25:08.257Z,60.3
2022-11-02T12:26:08.859Z,60.2
2022-11-02T12:27:09.459Z,60.1
2022-11-02T12:28:10.066Z,60.8
2022-11-02T12:29:10.667Z,60.4
2022-11-02T12:30:11.300Z,61.2
2022-11-02T12:31:11.907Z,61.1
2022-11-02T12:32:12.510Z,61.1
2022-11-02T12:33:13.112Z,60.2
2022-11-02T12:34:13.712Z,60.1
2022-11-02T12:35:30.580Z,59.3
2022-11-02T12:36:15.906Z,59.5
2022-11-02T12:37:40.292Z,60.3
2022-11-02T12:38:18.099Z,58.7
2022-11-02T12:39:18.719Z,59.1
2022-11-02T12:40:19.354Z,58.8
2022-11-02T12:41:19.939Z,58.2
2022-11-02T12:42:20.542Z,58.2
2022-11-02T12:43:21.142Z,59.2
2022-11-02T12:44:21.749Z,60.1
2022-11-02T12:45:22.344Z,59.1
2022-11-02T12:46:22.945Z,58.6
2022-11-02T12:47:23.545Z,57.7
2022-11-02T12:48:24.150Z,58.0
2022-11-02T12:49:24.748Z,59.4
2022-11-02T12:50:25.352Z,59.5
2022-11-02T12:51:25.954Z,59.5
2022-11-02T12:52:26.549Z,60.2
2022-11-02T12:53:27.149Z,60.7
2022-11-02T12:54:27.752Z,61.5
2022-11-02T12:55:28.354Z,61.4
2022-11-02T12:56:28.957Z,61.3
2022-11-02T12:57:29.557Z,61.4
2022-11-02T12:58:30.158Z,61.4
2022-11-02T12:59:30.760Z,61.1
2022-11-02T13:00:31.361Z,60.9
2022-11-02T13:01:32.179Z,60.2
2022-11-02T13:02:32.578Z,59.6
2022-11-02T13:03:33.180Z,59.8
2022-11-02T13:04:37.043Z,59.8
2022-11-02T13:05:35.375Z,60.4
2022-11-02T13:06:35.997Z,60.4
2022-11-02T13:07:36.597Z,60.0
2022-11-02T13:08:37.220Z,60.4
2022-11-02T13:09:37.820Z,60.7
2022-11-02T13:10:38.442Z,60.2
2022-11-02T13:11:39.042Z,60.1
2022-11-02T13:12:39.646Z,60.3
2022-11-02T13:13:40.245Z,60.8
2022-11-02T13:14:40.851Z,60.5
2022-11-02T13:15:41.446Z,60.6
2022-11-02T13:16:42.049Z,60.1
2022-11-02T13:17:42.651Z,61.7
2022-11-02T13:18:43.251Z,61.2
2022-11-02T13:19:43.860Z,61.3
2022-11-02T13:20:44.452Z,61.8
2022-11-02T13:21:45.099Z,61.8
2022-11-02T13:22:45.671Z,62.6
2022-11-02T13:23:46.271Z,62.6
2022-11-02T13:24:46.871Z,62.8
2022-11-02T13:25:47.467Z,62.7
2022-11-02T13:26:53.208Z,63.1
2022-11-02T13:27:49.663Z,63.7
2022-11-02T13:28:50.265Z,63.1
2022-11-02T13:29:50.933Z,63.4
2022-11-02T13:30:51.477Z,63.7
2022-11-02T13:31:52.343Z,63.7
2022-11-02T13:32:52.910Z,64.7
2022-11-02T13:33:53.525Z,63.9
2022-11-02T13:34:54.127Z,64.3
2022-11-02T13:35:54.725Z,64.5
2022-11-02T13:36:55.326Z,64.3